Warning: Javascript must be enabled to use all the features on this page!


Page Loading - Please Wait...

Click to hideNews Bulletins

USGS 04189260 Blanchard River at Ottawa OH

PROVISIONAL DATA SUBJECT TO REVISION

Click to hidestation-specific text
Station operated in cooperation with the Village of Ottawa and the National Streamflow Information Program.
 04189260 Blanchard River at Ottawa, OH
 LOCATION.--Lat 41°01'01", long 84°02'49", Putnam County, OH, Hydrologic 
     Unit 04100008, on right bank at downstream side of Oak Street, 200 ft. upstream 
     of B&O railroad bridge, 800 ft. upstream of SR65 bridge, 1,200 ft. southeast of 
     intersection of SR65 and US RT224 in the village of Ottawa, OH.
 DRAINAGE AREA.--628 mi2.
 PERIOD OF RECORD.--October 2009 to current water year.

Boating safety tips
Available Parameters Available Period
All 2 Available Parameters for this site
  
00065 Gage height 2015-03-01  2015-06-29
00060 Discharge 2009-10-01  2015-06-29

Graph
Graph w/ stats
Graph w/o stats
Graph w/ (up to 3) parms
Table
Tab-separated
Days  (7)
 

  -- or --
Begin date
 

End date
 

Summary of all available data for this site
Instantaneous-data availability statement
Gage height, feet
TIMEJun 22Jun 23Jun 24Jun 25Jun 26Jun 27Jun 28Jun 29
00:00 EDT14.87P  9.78P  8.43P  7.63P  7.30P  7.97P  22.67P  25.82P  
00:30 EDT14.75P  9.73P  8.41P  7.62P  7.29P  7.98P  22.86P  25.81P  
01:00 EDT14.63P  9.68P  8.39P  7.61P  7.29P  8.00P  23.07P  25.80P  
01:30 EDT14.51P  9.64P  8.37P  7.59P  7.28P  8.05P  23.27P  25.81P  
02:00 EDT14.39P  9.59P  8.35P  7.58P  7.28P  8.12P  23.45P  25.80P  
02:30 EDT14.27P  9.54P  8.34P  7.57P  7.28P  8.21P  23.62P  25.80P  
03:00 EDT14.14P  9.50P  8.32P  7.55P  7.27P  8.34P  23.81P  25.79P  
03:30 EDT14.02P  9.46P  8.30P  7.54P  7.28P  8.51P  23.96P  25.79P  
04:00 EDT13.90P  9.42P  8.28P  7.53P  7.27P  8.71P  24.11P  25.78P  
04:30 EDT13.78P  9.39P  8.27P  7.52P  7.28P  8.96P  24.27P  25.77P  
05:00 EDT13.66P  9.35P  8.25P  7.50P  7.28P  9.23P  24.40P  25.76P  
05:30 EDT13.54P  9.31P  8.24P  7.50P  7.28P  9.56P  24.53P  25.75P  
06:00 EDT13.42P  9.28P  8.22P  7.49P  7.29P  9.93P  24.65P  25.74P  
06:30 EDT13.30P  9.24P  8.21P  7.48P  7.30P  10.39P  24.76P  25.73P  
07:00 EDT13.18P  9.21P  8.19P  7.46P  7.31P  10.93P  24.86P  25.73P  
07:30 EDT13.05P  9.18P  8.17P  7.46P  7.32P  11.52P  24.94P  25.70P  
08:00 EDT12.93P  9.15P  8.16P  7.45P  7.34P  12.14P  25.03P  25.70P  
08:30 EDT12.81P  9.12P  8.15P  7.44P  7.35P  12.80P  25.10P  25.69P  
09:00 EDT12.69P  9.10P  8.13P  7.45P  7.37P  13.45P  25.17P  25.68P  
09:30 EDT12.57P  9.07P  8.12P  7.46P  7.39P  14.07P  25.23P  25.67P  
10:00 EDT12.45P  9.04P  8.10P  7.45P  7.41P  14.64P  25.28P  25.65P  
10:30 EDT12.33P  9.02P  8.09P  7.45P  7.44P  15.16P  25.34P  25.64P  
11:00 EDT12.18P  8.99P  8.07P  7.45P  7.46P  15.62P  25.38P  25.63P  
11:30 EDT12.06P  8.97P  8.06P  7.44P  7.48P  16.04P  25.43P  25.62P  
12:00 EDT11.93P  8.95P  8.05P  7.44P  7.49P  16.44P  25.47P  25.59P  
12:30 EDT11.81P  8.92P  8.03P  7.43P  7.51P  16.83P  25.49P  25.57P  
13:00 EDT11.69P  8.91P  8.02P  7.43P  7.53P  17.17P  25.53P  25.57P  
13:30 EDT11.59P  8.87P  8.01P  7.43P  7.54P  17.53P  25.56P  25.54P  
14:00 EDT11.47P  8.86P  7.99P  7.43P  7.56P  17.84P  25.58P  25.53P  
14:30 EDT11.36P  8.83P  7.97P  7.42P  7.58P  18.14P  25.60P  25.51P  
15:00 EDT11.25P  8.81P  7.95P  7.41P  7.60P  18.43P  25.63P  25.49P  
15:30 EDT11.14P  8.79P  7.93P  7.41P  7.64P  18.71P  25.65P  25.46P  
16:00 EDT11.03P  8.76P  7.91P  7.40P  7.68P  18.98P  25.67P  25.44P  
16:30 EDT10.94P  8.75P  7.89P  7.39P  7.73P  19.24P  25.68P  25.41P  
17:00 EDT10.84P  8.72P  7.87P  7.39P  7.78P  19.52P  25.70P  25.39P  
17:30 EDT10.75P  8.70P  7.85P  7.38P  7.82P  19.77P  25.71P  25.36P  
18:00 EDT10.65P  8.67P  7.83P  7.37P  7.86P  20.01P  25.72P  25.33P  
18:30 EDT10.56P  8.65P  7.81P  7.36P  7.89P  20.24P  25.73P  25.30P  
19:00 EDT10.48P  8.63P  7.79P  7.36P  7.91P  20.48P  25.75P   
19:30 EDT10.39P  8.61P  7.78P  7.35P  7.93P  20.73P  25.75P   
20:00 EDT10.32P  8.59P  7.76P  7.34P  7.94P  20.95P  25.77P   
20:30 EDT10.24P  8.57P  7.74P  7.33P  7.96P  21.16P  25.78P   
21:00 EDT10.17P  8.55P  7.72P  7.34P  7.96P  21.38P  25.78P   
21:30 EDT10.09P  8.53P  7.71P  7.33P  7.96P  21.61P  25.80P   
22:00 EDT10.03P  8.50P  7.70P  7.32P  7.96P  21.80P  25.81P   
22:30 EDT9.96P  8.49P  7.68P  7.32P  7.96P  22.01P  25.81P   
23:00 EDT9.90P  8.47P  7.66P  7.31P  7.96P  22.24P  25.80P   
23:30 EDT9.84P  8.44P  7.65P  7.31P  7.97P  22.45P  25.81P   
COUNT4848484848484838
MAX14.879.788.437.637.9722.4525.8125.82
MIN9.848.447.657.317.277.9722.6725.30

Explanation
  P  Provisional data subject to revision.